Station Historical Data
Daily Summary for April 30, 2017 Units:  Metric    English   Both
« Previous Day
Next Day »
Daily Weekly Monthly Yearly Custom
  High: Low: Average:
Temperature: 27.9 °C 18.7 °C 22.9 °C
Dew Point: 20.3 °C 17.2 °C 18.3 °C
Humidity: 91% 54% 77%
Wind Speed: 1.6km/h 0km/h 0.2km/h
Wind Gust: 11.3km/h - -
Wind- - WNW
Pressure: 1020.2 hPa 1014.8 hPa -
Precipitation: 1.78 mm    
Historical Graphs
 
 
Tabular Data for April 30, 2017
Time Temperature Dew Point Pressure Wind Wind Speed Wind Gust Humidity Rainfall Rate (Hourly) solar Conditions
00:00 23.2 °C 19.2 °C 1018.5 hPa Calm     78% 0 mm WeatherDisplay:10.37 W/m2 SCT
00:15 23 °C 18.9 °C 1018.5 hPa Calm     78% 0 mm WeatherDisplay:10.37 W/m2 SCT
00:30 22.8 °C 18.6 °C 1018.2 hPa Calm     77% 0 mm WeatherDisplay:10.37 W/m2 SCT
00:45 22.7 °C 18.6 °C 1018.2 hPa Calm     78% 0 mm WeatherDisplay:10.37 W/m2 SCT
01:00 22.5 °C 18.5 °C 1018.2 hPa Calm     78% 0 mm WeatherDisplay:10.37 W/m2 SCT
01:15 22.3 °C 18.3 °C 1017.8 hPa Calm     78% 0 mm WeatherDisplay:10.37 W/m2 SCT
01:30 22 °C 18.4 °C 1017.8 hPa Calm     80% 0 mm WeatherDisplay:10.37 W/m2 SCT
01:45 21.8 °C 18.4 °C 1017.8 hPa Calm     81% 0 mm WeatherDisplay:10.37 W/m2 SCT
02:00 21.6 °C 18.3 °C 1017.8 hPa Calm     82% 0 mm WeatherDisplay:10.37 W/m2 SCT
02:15 21.3 °C 18.3 °C 1017.8 hPa Calm     83% 0 mm WeatherDisplay:10.37 W/m2 SCT
02:30 21.2 °C 18.2 °C 1017.8 hPa Calm     83% 0 mm WeatherDisplay:10.37 W/m2 SCT
02:45 21.1 °C 18.1 °C 1017.8 hPa Calm     83% 0 mm WeatherDisplay:10.37 W/m2 SCT
03:00 21.1 °C 18.2 °C 1017.8 hPa Calm     84% 0 mm WeatherDisplay:10.37 W/m2 SCT
03:15 21.3 °C 18.5 °C 1017.8 hPa Calm   1.6 km/h 84% 0 mm WeatherDisplay:10.37 W/m2 SCT
03:30 21 °C 18.2 °C 1017.5 hPa Calm     84% 0 mm WeatherDisplay:10.37 W/m2 SCT
03:45 21 °C 18.2 °C 1017.5 hPa Calm     84% 0 mm WeatherDisplay:10.37 W/m2 SCT
04:00 21 °C 18.2 °C 1017.5 hPa Calm     84% 0 mm WeatherDisplay:10.37 W/m2 SCT
04:15 21 °C 18.2 °C 1017.5 hPa Calm     84% 0 mm WeatherDisplay:10.37 W/m2 SCT
04:30 21 °C 18.2 °C 1017.8 hPa Calm     84% 0 mm WeatherDisplay:10.37 W/m2 SCT
04:45 21 °C 18.2 °C 1017.5 hPa Calm     84% 0 mm WeatherDisplay:10.37 W/m2 SCT
05:00 21 °C 18.2 °C 1017.2 hPa Calm     84% 0 mm WeatherDisplay:10.37 W/m2 SCT
05:15 21 °C 18.2 °C 1016.8 hPa Calm     84% 0 mm WeatherDisplay:10.37 W/m2 SCT
05:30 21 °C 18.2 °C 1016.8 hPa Calm     84% 0 mm WeatherDisplay:10.37 W/m2 SCT
05:45 21 °C 18.2 °C 1017.2 hPa Calm     84% 0 mm WeatherDisplay:10.37 W/m2 SCT
06:00 21 °C 18.2 °C 1017.5 hPa Calm     84% 0 mm WeatherDisplay:10.37 W/m2 SCT
06:15 21 °C 18.2 °C 1017.5 hPa Calm     84% 0 mm WeatherDisplay:10.37 W/m2 SCT
06:30 21 °C 18.2 °C 1017.5 hPa Calm     84% 0 mm WeatherDisplay:10.37 W/m2 SCT
06:45 21 °C 18.2 °C 1017.5 hPa Calm     84% 0 mm WeatherDisplay:10.37 W/m2 SCT
07:00 21 °C 18.2 °C 1017.5 hPa Calm     84% 0 mm WeatherDisplay:10.37 W/m2 SCT
07:15 21 °C 18.2 °C 1017.2 hPa Calm     84% 0 mm WeatherDisplay:10.37 W/m2 SCT
07:30 21 °C 18.2 °C 1016.8 hPa Calm     84% 0 mm WeatherDisplay:10.37 W/m2 SCT
07:45 21 °C 18.2 °C 1016.8 hPa Calm     84% 0 mm WeatherDisplay:10.37 W/m2 SCT
08:00 21 °C 18.2 °C 1016.8 hPa Calm     84% 0 mm WeatherDisplay:10.37 W/m2 SCT
08:15 21 °C 18.2 °C 1017.5 hPa Calm     84% 0 mm WeatherDisplay:10.37 W/m2 SCT
08:30 21 °C 18.2 °C 1017.5 hPa Calm     84% 0 mm WeatherDisplay:10.37 W/m2 SCT
08:45 21 °C 18.2 °C 1017.5 hPa Calm     84% 0 mm WeatherDisplay:10.37 W/m2 SCT
09:00 21 °C 18.2 °C 1018.2 hPa Calm     84% 0 mm WeatherDisplay:10.37 W/m2 SCT
09:15 21 °C 18.2 °C 1018.5 hPa Calm     84% 0 mm WeatherDisplay:10.37 W/m2 SCT
09:30 21 °C 18.2 °C 1018.5 hPa Calm     84% 0 mm WeatherDisplay:10.37 W/m2 SCT
09:45 21 °C 18.2 °C 1019.2 hPa Calm     84% 0 mm WeatherDisplay:10.37 W/m2 SCT
10:00 21 °C 18.2 °C 1019.2 hPa Calm     84% 0 mm WeatherDisplay:10.37 W/m2 SCT
10:15 21 °C 18.2 °C 1019.5 hPa Calm     84% 0 mm WeatherDisplay:10.37 W/m2 SCT
10:30 21 °C 18.2 °C 1019.2 hPa Calm     84% 0 mm WeatherDisplay:10.37 W/m2 SCT
10:45 21 °C 18.2 °C 1019.2 hPa Calm     84% 0 mm WeatherDisplay:10.37 W/m2 SCT
11:00 21 °C 18.2 °C 1018.8 hPa Calm     84% 0 mm WeatherDisplay:10.37 W/m2 SCT
11:15 21.8 °C 19.2 °C 1018.8 hPa Calm     85% 0 mm WeatherDisplay:10.37 W/m2 SCT
11:30 22 °C 19.2 °C 1018.8 hPa Calm   3.2 km/h 84% 0 mm WeatherDisplay:10.37 W/m2 SCT
11:45 22.2 °C 19.4 °C 1019.2 hPa Calm   3.2 km/h 84% 0 mm WeatherDisplay:10.37 W/m2 SCT
12:00 22.4 °C 19.6 °C 1019.5 hPa Calm   3.2 km/h 84% 0 mm WeatherDisplay:10.37 W/m2 SCT
12:15 22.4 °C 19.6 °C 1020.2 hPa Calm   3.2 km/h 84% 0 mm WeatherDisplay:10.37 W/m2 SCT
12:30 22.1 °C 19.7 °C 1019.5 hPa Calm   3.2 km/h 86% 0 mm WeatherDisplay:10.37 W/m2 SCT
12:45 22.4 °C 20 °C 1018.8 hPa Calm   3.2 km/h 86% 0 mm WeatherDisplay:10.37 W/m2 SCT
13:00 23.8 °C 20.3 °C 1018.8 hPa Calm   4.8 km/h 81% 0 mm WeatherDisplay:10.37 W/m2 SCT
13:15 25 °C 20.3 °C 1018.2 hPa WNW 1.6 km/h 3.2 km/h 75% 0 mm WeatherDisplay:10.37 W/m2 SCT
13:30 25.4 °C 20.2 °C 1017.8 hPa WNW 1.6 km/h 8 km/h 73% 0 mm WeatherDisplay:10.37 W/m2 SCT
13:45 26 °C 19.6 °C 1017.8 hPa Calm   4.8 km/h 68% 0 mm WeatherDisplay:10.37 W/m2 SCT
14:00 26.7 °C 19.8 °C 1017.5 hPa Calm   4.8 km/h 66% 0 mm WeatherDisplay:10.37 W/m2 SCT
14:15 27 °C 19.6 °C 1017.8 hPa WNW 1.6 km/h 4.8 km/h 64% 0 mm WeatherDisplay:10.37 W/m2 SCT
14:30 26.7 °C 18.8 °C 1017.2 hPa NW 1.6 km/h 11.3 km/h 62% 0 mm WeatherDisplay:10.37 W/m2 SCT
14:45 26.8 °C 19.2 °C 1017.2 hPa Calm   8 km/h 63% 0 mm WeatherDisplay:10.37 W/m2 SCT
15:00 26.9 °C 19 °C 1017.2 hPa Calm   4.8 km/h 62% 0 mm WeatherDisplay:10.37 W/m2 SCT
15:15 26.7 °C 18.8 °C 1017.2 hPa Calm   4.8 km/h 62% 0 mm WeatherDisplay:10.37 W/m2 SCT
15:30 26.5 °C 18.9 °C 1017.2 hPa Calm   3.2 km/h 63% 0 mm WeatherDisplay:10.37 W/m2 SCT
15:45 26.9 °C 18.7 °C 1016.8 hPa NW 1.6 km/h 3.2 km/h 61% 0 mm WeatherDisplay:10.37 W/m2 SCT
16:00 26.8 °C 18.9 °C 1016.8 hPa Calm   3.2 km/h 62% 0 mm WeatherDisplay:10.37 W/m2 SCT
16:15 26.9 °C 18.5 °C 1016.1 hPa Calm   4.8 km/h 60% 0 mm WeatherDisplay:10.37 W/m2 SCT
16:30 27.2 °C 18.7 °C 1016.1 hPa Calm   4.8 km/h 60% 0 mm WeatherDisplay:10.37 W/m2 SCT
16:45 27.3 °C 18.6 °C 1016.1 hPa Calm   4.8 km/h 59% 0 mm WeatherDisplay:10.37 W/m2 SCT
17:00 27.7 °C 17.6 °C 1016.1 hPa Calm   3.2 km/h 54% 0 mm WeatherDisplay:10.37 W/m2 SCT
17:15 27.9 °C 18.3 °C 1016.1 hPa Calm   3.2 km/h 56% 0 mm WeatherDisplay:10.37 W/m2 SCT
17:30 27.4 °C 17.6 °C 1015.8 hPa Calm   8 km/h 55% 0 mm WeatherDisplay:10.37 W/m2 SCT
17:45 27.1 °C 17.8 °C 1015.8 hPa Calm   1.6 km/h 57% 0 mm WeatherDisplay:10.37 W/m2 SCT
18:00 26.8 °C 17.6 °C 1015.8 hPa Calm   1.6 km/h 57% 0 mm WeatherDisplay:10.37 W/m2 SCT
18:15 26.8 °C 17.8 °C 1015.5 hPa Calm   1.6 km/h 58% 0 mm WeatherDisplay:10.37 W/m2 SCT
18:30 26.5 °C 18.1 °C 1015.5 hPa Calm   3.2 km/h 60% 0 mm WeatherDisplay:10.37 W/m2 SCT
18:45 26.1 °C 17.7 °C 1015.5 hPa Calm   1.6 km/h 60% 0 mm WeatherDisplay:10.37 W/m2 SCT
19:00 26 °C 17.6 °C 1015.1 hPa Calm   3.2 km/h 60% 0 mm WeatherDisplay:10.37 W/m2 SCT
19:15 25.8 °C 17.5 °C 1014.8 hPa Calm   1.6 km/h 60% 0 mm WeatherDisplay:10.37 W/m2 SCT
19:30 25.6 °C 17.6 °C 1014.8 hPa Calm   3.2 km/h 61% 0 mm WeatherDisplay:10.37 W/m2 SCT
19:45 25.3 °C 17.7 °C 1014.8 hPa Calm     63% 0 mm WeatherDisplay:10.37 W/m2 SCT
20:00 24.9 °C 17.7 °C 1014.8 hPa Calm     64% 0 mm WeatherDisplay:10.37 W/m2 SCT
20:15 24.7 °C 17.7 °C 1014.8 hPa Calm     65% 0 mm WeatherDisplay:10.37 W/m2 SCT
20:30 24.6 °C 17.8 °C 1015.1 hPa Calm     66% 0 mm WeatherDisplay:10.37 W/m2 SCT
20:45 24.5 °C 17.9 °C 1015.1 hPa Calm     67% 0 mm WeatherDisplay:10.37 W/m2 SCT
21:00 24.3 °C 17.8 °C 1015.5 hPa Calm     67% 0 mm WeatherDisplay:10.37 W/m2 SCT
21:15 23.9 °C 17.4 °C 1015.8 hPa Calm   8 km/h 67% 0 mm WeatherDisplay:10.37 W/m2 SCT
21:30 22.6 °C 18.1 °C 1016.1 hPa Calm   3.2 km/h 76% 0.76 mm WeatherDisplay:10.37 W/m2 RA
21:45 20.7 °C 17.9 °C 1015.8 hPa Calm   3.2 km/h 84% 0 mm WeatherDisplay:10.37 W/m2 SCT
22:00 19.9 °C 17.7 °C 1016.5 hPa Calm   1.6 km/h 87% 0 mm WeatherDisplay:10.37 W/m2 SCT
22:15 19.5 °C 17.6 °C 1015.8 hPa Calm   1.6 km/h 89% 1.02 mm WeatherDisplay:10.37 W/m2 SCT
22:30 19.2 °C 17.4 °C 1015.8 hPa Calm   1.6 km/h 89% 0 mm WeatherDisplay:10.37 W/m2 SCT
22:45 19 °C 17.3 °C 1015.8 hPa Calm     90% 0 mm WeatherDisplay:10.37 W/m2 SCT
23:00 18.9 °C 17.2 °C 1015.5 hPa Calm     90% 0 mm WeatherDisplay:10.37 W/m2 SCT
23:15 18.9 °C 17.4 °C 1015.5 hPa Calm     91% 0 mm WeatherDisplay:10.37 W/m2 SCT
23:30 18.8 °C 17.3 °C 1015.8 hPa Calm     91% 0 mm WeatherDisplay:10.37 W/m2 SCT
23:45 18.7 °C 17.2 °C 1015.8 hPa Calm     91% 0 mm WeatherDisplay:10.37 W/m2 SCT
Piedmont Bend
Compliments of Weather Underground - 4 mb